CheckWX is a tool to help pilots better visualize weather data.  It is not intended as a substitute for an official pre-flight weather briefing.

16:16:11 UTC

KMGM METAR
Montgomery Regional (Dannelly Field) Airport
Montgomery, Alabama, USA
Current

23 mins ago

KMGM 111553Z 34010KT 10SM CLR 32/21 A2998 RMK AO2 SLP147 T03220211
Observed
Jul-11 @ 15:53 UTC
Wind
  • 340° at 10 KTS
Visibility
10 SM
Flight Rules
VFR
Cloud Levels
  • Clear skies
Temperature
32°C / 90°F
Dewpoint
21°C / 70°F
Humidity
52%
Altimeter
29.98" Hg
Pressure
1015.22 hPa
Previous

1 hour ago

KMGM 111453Z 33008KT 10SM CLR 31/20 A2999 RMK AO2 SLP151 T03060200 50006
Observed
Jul-11 @ 14:53 UTC
Wind
  • 330° at 8 KTS
Visibility
10 SM
Flight Rules
VFR
Cloud Levels
  • Clear skies
Temperature
31°C / 88°F
Dewpoint
20°C / 68°F
Humidity
52%
Altimeter
29.99" Hg
Pressure
1015.62 hPa
Previous

2 hours ago

KMGM 111353Z 34007KT 10SM CLR 30/23 A3000 RMK AO2 SLP154 T03000228
Observed
Jul-11 @ 13:53 UTC
Wind
  • 340° at 7 KTS
Visibility
10 SM
Flight Rules
VFR
Cloud Levels
  • Clear skies
Temperature
30°C / 86°F
Dewpoint
23°C / 73°F
Humidity
66%
Altimeter
30" Hg
Pressure
1015.92 hPa